sensor_id;sensor_type;location;lat;lon;timestamp;P1;durP1;ratioP1;P2;durP2;ratioP2
67965;SDS011;54749;47.850;9.002;2023-12-20T00:00:36;8.10;;;3.13;;
67965;SDS011;54749;47.850;9.002;2023-12-20T00:03:27;6.80;;;2.17;;
67965;SDS011;54749;47.850;9.002;2023-12-20T00:05:54;8.45;;;3.35;;
67965;SDS011;54749;47.850;9.002;2023-12-20T00:08:22;8.13;;;3.00;;
67965;SDS011;54749;47.850;9.002;2023-12-20T00:10:49;8.85;;;3.10;;
67965;SDS011;54749;47.850;9.002;2023-12-20T00:13:16;9.27;;;3.53;;
67965;SDS011;54749;47.850;9.002;2023-12-20T00:15:44;7.43;;;2.58;;
67965;SDS011;54749;47.850;9.002;2023-12-20T00:18:11;7.45;;;2.70;;
67965;SDS011;54749;47.850;9.002;2023-12-20T00:20:38;6.53;;;2.05;;
67965;SDS011;54749;47.850;9.002;2023-12-20T00:23:05;5.72;;;2.00;;
67965;SDS011;54749;47.850;9.002;2023-12-20T00:25:32;5.43;;;1.80;;
67965;SDS011;54749;47.850;9.002;2023-12-20T00:28:00;5.72;;;2.10;;
67965;SDS011;54749;47.850;9.002;2023-12-20T00:30:28;6.68;;;2.30;;
67965;SDS011;54749;47.850;9.002;2023-12-20T00:32:55;5.15;;;2.10;;
67965;SDS011;54749;47.850;9.002;2023-12-20T00:35:23;5.70;;;2.10;;
67965;SDS011;54749;47.850;9.002;2023-12-20T00:37:50;5.33;;;2.43;;
67965;SDS011;54749;47.850;9.002;2023-12-20T00:40:18;14.80;;;5.07;;
67965;SDS011;54749;47.850;9.002;2023-12-20T00:42:45;11.27;;;4.45;;
67965;SDS011;54749;47.850;9.002;2023-12-20T00:45:14;10.38;;;3.88;;
67965;SDS011;54749;47.850;9.002;2023-12-20T00:47:41;12.32;;;3.40;;
67965;SDS011;54749;47.850;9.002;2023-12-20T00:50:09;10.70;;;3.17;;
67965;SDS011;54749;47.850;9.002;2023-12-20T00:52:36;9.18;;;4.00;;
67965;SDS011;54749;47.850;9.002;2023-12-20T00:55:04;10.13;;;3.50;;
67965;SDS011;54749;47.850;9.002;2023-12-20T00:57:31;11.45;;;3.97;;
67965;SDS011;54749;47.850;9.002;2023-12-20T00:59:58;10.25;;;4.00;;
67965;SDS011;54749;47.850;9.002;2023-12-20T01:02:25;14.70;;;5.47;;
67965;SDS011;54749;47.850;9.002;2023-12-20T01:04:53;11.95;;;4.72;;
67965;SDS011;54749;47.850;9.002;2023-12-20T01:07:20;11.48;;;4.30;;
67965;SDS011;54749;47.850;9.002;2023-12-20T01:09:48;9.05;;;3.85;;
67965;SDS011;54749;47.850;9.002;2023-12-20T01:12:15;7.95;;;3.58;;
67965;SDS011;54749;47.850;9.002;2023-12-20T01:14:43;13.67;;;3.90;;
67965;SDS011;54749;47.850;9.002;2023-12-20T01:17:10;10.68;;;3.35;;
67965;SDS011;54749;47.850;9.002;2023-12-20T01:19:37;7.18;;;2.78;;
67965;SDS011;54749;47.850;9.002;2023-12-20T01:22:05;8.13;;;2.70;;
67965;SDS011;54749;47.850;9.002;2023-12-20T01:24:32;7.13;;;2.00;;
67965;SDS011;54749;47.850;9.002;2023-12-20T01:26:59;6.70;;;2.10;;
67965;SDS011;54749;47.850;9.002;2023-12-20T01:29:26;6.82;;;2.22;;
67965;SDS011;54749;47.850;9.002;2023-12-20T01:31:53;5.75;;;2.20;;
67965;SDS011;54749;47.850;9.002;2023-12-20T01:34:21;6.38;;;2.28;;
67965;SDS011;54749;47.850;9.002;2023-12-20T01:36:48;6.22;;;2.20;;
67965;SDS011;54749;47.850;9.002;2023-12-20T01:39:15;6.27;;;2.00;;
67965;SDS011;54749;47.850;9.002;2023-12-20T01:41:53;7.07;;;2.40;;
67965;SDS011;54749;47.850;9.002;2023-12-20T01:44:21;5.53;;;2.05;;
67965;SDS011;54749;47.850;9.002;2023-12-20T01:46:48;6.75;;;2.80;;
67965;SDS011;54749;47.850;9.002;2023-12-20T01:49:15;6.47;;;2.47;;
67965;SDS011;54749;47.850;9.002;2023-12-20T01:51:43;7.07;;;2.33;;
67965;SDS011;54749;47.850;9.002;2023-12-20T01:54:11;6.90;;;2.63;;
67965;SDS011;54749;47.850;9.002;2023-12-20T01:56:39;6.28;;;2.65;;
67965;SDS011;54749;47.850;9.002;2023-12-20T01:59:06;8.55;;;3.38;;
67965;SDS011;54749;47.850;9.002;2023-12-20T02:01:35;8.65;;;3.38;;
67965;SDS011;54749;47.850;9.002;2023-12-20T02:04:03;9.03;;;3.50;;
67965;SDS011;54749;47.850;9.002;2023-12-20T02:06:30;8.52;;;3.10;;
67965;SDS011;54749;47.850;9.002;2023-12-20T02:08:58;7.60;;;3.05;;
67965;SDS011;54749;47.850;9.002;2023-12-20T02:11:26;8.75;;;3.60;;
67965;SDS011;54749;47.850;9.002;2023-12-20T02:13:53;10.45;;;3.78;;
67965;SDS011;54749;47.850;9.002;2023-12-20T02:16:21;8.53;;;3.37;;
67965;SDS011;54749;47.850;9.002;2023-12-20T02:18:49;8.00;;;3.33;;
67965;SDS011;54749;47.850;9.002;2023-12-20T02:21:16;11.40;;;4.40;;
67965;SDS011;54749;47.850;9.002;2023-12-20T02:23:44;9.65;;;3.75;;
67965;SDS011;54749;47.850;9.002;2023-12-20T02:26:11;8.43;;;3.45;;
67965;SDS011;54749;47.850;9.002;2023-12-20T02:28:40;8.80;;;3.50;;
67965;SDS011;54749;47.850;9.002;2023-12-20T02:31:07;7.85;;;3.45;;
67965;SDS011;54749;47.850;9.002;2023-12-20T02:33:35;10.45;;;4.18;;
67965;SDS011;54749;47.850;9.002;2023-12-20T02:36:02;7.55;;;3.10;;
67965;SDS011;54749;47.850;9.002;2023-12-20T02:38:30;7.70;;;2.95;;
67965;SDS011;54749;47.850;9.002;2023-12-20T02:40:58;9.47;;;3.60;;
67965;SDS011;54749;47.850;9.002;2023-12-20T02:43:25;13.40;;;5.20;;
67965;SDS011;54749;47.850;9.002;2023-12-20T02:45:52;21.08;;;9.45;;
67965;SDS011;54749;47.850;9.002;2023-12-20T02:48:19;21.05;;;10.18;;
67965;SDS011;54749;47.850;9.002;2023-12-20T02:50:47;19.08;;;8.52;;
67965;SDS011;54749;47.850;9.002;2023-12-20T02:53:16;13.70;;;6.10;;
67965;SDS011;54749;47.850;9.002;2023-12-20T02:55:43;18.23;;;8.43;;
67965;SDS011;54749;47.850;9.002;2023-12-20T02:58:10;14.15;;;7.30;;
67965;SDS011;54749;47.850;9.002;2023-12-20T03:00:37;14.07;;;6.93;;
67965;SDS011;54749;47.850;9.002;2023-12-20T03:03:04;11.07;;;4.68;;
67965;SDS011;54749;47.850;9.002;2023-12-20T03:05:32;10.10;;;4.20;;
67965;SDS011;54749;47.850;9.002;2023-12-20T03:08:00;11.05;;;5.13;;
67965;SDS011;54749;47.850;9.002;2023-12-20T03:10:27;13.85;;;5.65;;
67965;SDS011;54749;47.850;9.002;2023-12-20T03:12:54;9.55;;;4.68;;
67965;SDS011;54749;47.850;9.002;2023-12-20T03:15:21;11.98;;;4.40;;
67965;SDS011;54749;47.850;9.002;2023-12-20T03:17:48;13.97;;;6.03;;
67965;SDS011;54749;47.850;9.002;2023-12-20T03:20:16;13.82;;;5.20;;
67965;SDS011;54749;47.850;9.002;2023-12-20T03:22:43;11.57;;;4.43;;
67965;SDS011;54749;47.850;9.002;2023-12-20T03:25:10;13.25;;;5.25;;
67965;SDS011;54749;47.850;9.002;2023-12-20T03:27:37;11.98;;;4.88;;
67965;SDS011;54749;47.850;9.002;2023-12-20T03:30:08;10.73;;;4.40;;
67965;SDS011;54749;47.850;9.002;2023-12-20T03:32:36;12.13;;;4.75;;
67965;SDS011;54749;47.850;9.002;2023-12-20T03:35:04;13.05;;;5.07;;
67965;SDS011;54749;47.850;9.002;2023-12-20T03:37:32;11.60;;;4.90;;
67965;SDS011;54749;47.850;9.002;2023-12-20T03:39:59;11.27;;;4.75;;
67965;SDS011;54749;47.850;9.002;2023-12-20T03:42:27;17.20;;;6.50;;
67965;SDS011;54749;47.850;9.002;2023-12-20T03:44:55;15.95;;;6.80;;
67965;SDS011;54749;47.850;9.002;2023-12-20T03:47:22;14.98;;;6.00;;
67965;SDS011;54749;47.850;9.002;2023-12-20T03:49:49;16.20;;;6.18;;
67965;SDS011;54749;47.850;9.002;2023-12-20T03:52:16;19.17;;;7.75;;
67965;SDS011;54749;47.850;9.002;2023-12-20T03:54:44;14.53;;;5.43;;
67965;SDS011;54749;47.850;9.002;2023-12-20T03:57:11;18.05;;;6.70;;
67965;SDS011;54749;47.850;9.002;2023-12-20T03:59:38;18.63;;;8.15;;
67965;SDS011;54749;47.850;9.002;2023-12-20T04:02:05;23.88;;;10.32;;
67965;SDS011;54749;47.850;9.002;2023-12-20T04:04:33;21.75;;;8.43;;
67965;SDS011;54749;47.850;9.002;2023-12-20T04:07:00;20.60;;;7.17;;
67965;SDS011;54749;47.850;9.002;2023-12-20T04:09:27;19.15;;;7.53;;
67965;SDS011;54749;47.850;9.002;2023-12-20T04:11:55;18.95;;;8.07;;
67965;SDS011;54749;47.850;9.002;2023-12-20T04:14:22;23.40;;;8.98;;
67965;SDS011;54749;47.850;9.002;2023-12-20T04:16:49;18.20;;;7.63;;
67965;SDS011;54749;47.850;9.002;2023-12-20T04:19:16;18.20;;;7.07;;
67965;SDS011;54749;47.850;9.002;2023-12-20T04:21:44;14.02;;;5.47;;
67965;SDS011;54749;47.850;9.002;2023-12-20T04:24:11;12.32;;;5.22;;
67965;SDS011;54749;47.850;9.002;2023-12-20T04:26:38;14.05;;;5.78;;
67965;SDS011;54749;47.850;9.002;2023-12-20T04:29:05;14.45;;;5.78;;
67965;SDS011;54749;47.850;9.002;2023-12-20T04:31:32;14.77;;;5.50;;
67965;SDS011;54749;47.850;9.002;2023-12-20T04:34:00;12.38;;;5.30;;
67965;SDS011;54749;47.850;9.002;2023-12-20T04:36:27;17.73;;;6.72;;
67965;SDS011;54749;47.850;9.002;2023-12-20T04:38:59;15.60;;;6.30;;
67965;SDS011;54749;47.850;9.002;2023-12-20T04:41:26;18.77;;;7.00;;
67965;SDS011;54749;47.850;9.002;2023-12-20T04:43:54;16.00;;;6.67;;
67965;SDS011;54749;47.850;9.002;2023-12-20T04:46:21;16.92;;;6.93;;
67965;SDS011;54749;47.850;9.002;2023-12-20T04:48:48;13.82;;;5.47;;
67965;SDS011;54749;47.850;9.002;2023-12-20T04:51:15;17.63;;;7.28;;
67965;SDS011;54749;47.850;9.002;2023-12-20T04:53:42;14.70;;;5.95;;
67965;SDS011;54749;47.850;9.002;2023-12-20T04:56:10;18.13;;;6.73;;
67965;SDS011;54749;47.850;9.002;2023-12-20T04:58:37;18.23;;;7.63;;
67965;SDS011;54749;47.850;9.002;2023-12-20T05:01:05;15.05;;;6.63;;
67965;SDS011;54749;47.850;9.002;2023-12-20T05:03:33;15.68;;;5.78;;
67965;SDS011;54749;47.850;9.002;2023-12-20T05:06:00;10.60;;;4.55;;
67965;SDS011;54749;47.850;9.002;2023-12-20T05:08:27;18.30;;;7.57;;
67965;SDS011;54749;47.850;9.002;2023-12-20T05:10:55;16.17;;;6.75;;
67965;SDS011;54749;47.850;9.002;2023-12-20T05:13:22;15.18;;;6.65;;
67965;SDS011;54749;47.850;9.002;2023-12-20T05:15:59;14.93;;;6.28;;
67965;SDS011;54749;47.850;9.002;2023-12-20T05:18:26;14.63;;;6.15;;
67965;SDS011;54749;47.850;9.002;2023-12-20T05:20:54;18.47;;;7.47;;
67965;SDS011;54749;47.850;9.002;2023-12-20T05:23:24;13.38;;;5.70;;
67965;SDS011;54749;47.850;9.002;2023-12-20T05:25:52;14.73;;;6.45;;
67965;SDS011;54749;47.850;9.002;2023-12-20T05:28:19;13.38;;;5.60;;
67965;SDS011;54749;47.850;9.002;2023-12-20T05:30:46;14.57;;;6.60;;
67965;SDS011;54749;47.850;9.002;2023-12-20T05:33:13;15.00;;;6.80;;
67965;SDS011;54749;47.850;9.002;2023-12-20T05:35:41;11.68;;;5.68;;
67965;SDS011;54749;47.850;9.002;2023-12-20T05:38:08;14.35;;;6.25;;
67965;SDS011;54749;47.850;9.002;2023-12-20T05:40:35;16.08;;;7.13;;
67965;SDS011;54749;47.850;9.002;2023-12-20T05:43:02;18.10;;;7.40;;
67965;SDS011;54749;47.850;9.002;2023-12-20T05:45:29;18.70;;;6.57;;
67965;SDS011;54749;47.850;9.002;2023-12-20T05:47:56;15.50;;;6.80;;
67965;SDS011;54749;47.850;9.002;2023-12-20T05:50:24;17.17;;;7.57;;
67965;SDS011;54749;47.850;9.002;2023-12-20T05:52:51;17.02;;;6.72;;
67965;SDS011;54749;47.850;9.002;2023-12-20T05:55:19;18.50;;;7.57;;
67965;SDS011;54749;47.850;9.002;2023-12-20T05:57:46;23.60;;;8.73;;
67965;SDS011;54749;47.850;9.002;2023-12-20T06:00:14;20.92;;;7.63;;
67965;SDS011;54749;47.850;9.002;2023-12-20T06:02:42;20.13;;;6.60;;
67965;SDS011;54749;47.850;9.002;2023-12-20T06:05:10;22.58;;;7.72;;
67965;SDS011;54749;47.850;9.002;2023-12-20T06:07:37;24.58;;;8.82;;
67965;SDS011;54749;47.850;9.002;2023-12-20T06:10:04;17.87;;;7.37;;
67965;SDS011;54749;47.850;9.002;2023-12-20T06:12:33;20.33;;;8.00;;
67965;SDS011;54749;47.850;9.002;2023-12-20T06:15:02;27.17;;;9.82;;
67965;SDS011;54749;47.850;9.002;2023-12-20T06:17:30;18.60;;;7.40;;
67965;SDS011;54749;47.850;9.002;2023-12-20T06:19:58;18.60;;;7.30;;
67965;SDS011;54749;47.850;9.002;2023-12-20T06:22:25;20.13;;;8.23;;
67965;SDS011;54749;47.850;9.002;2023-12-20T06:24:53;16.60;;;6.25;;
67965;SDS011;54749;47.850;9.002;2023-12-20T06:27:20;21.98;;;8.50;;
67965;SDS011;54749;47.850;9.002;2023-12-20T06:29:47;23.77;;;9.50;;
67965;SDS011;54749;47.850;9.002;2023-12-20T06:32:14;18.83;;;7.25;;
67965;SDS011;54749;47.850;9.002;2023-12-20T06:34:41;22.13;;;9.10;;
67965;SDS011;54749;47.850;9.002;2023-12-20T06:37:09;24.90;;;10.68;;
67965;SDS011;54749;47.850;9.002;2023-12-20T06:39:36;28.23;;;10.30;;
67965;SDS011;54749;47.850;9.002;2023-12-20T06:42:03;17.80;;;7.63;;
67965;SDS011;54749;47.850;9.002;2023-12-20T06:44:31;19.83;;;8.35;;
67965;SDS011;54749;47.850;9.002;2023-12-20T06:46:58;18.73;;;7.20;;
67965;SDS011;54749;47.850;9.002;2023-12-20T06:49:25;19.83;;;7.60;;
67965;SDS011;54749;47.850;9.002;2023-12-20T06:51:52;18.58;;;7.07;;
67965;SDS011;54749;47.850;9.002;2023-12-20T06:54:20;18.58;;;7.88;;
67965;SDS011;54749;47.850;9.002;2023-12-20T06:56:47;16.65;;;7.13;;
67965;SDS011;54749;47.850;9.002;2023-12-20T06:59:14;15.10;;;6.13;;
67965;SDS011;54749;47.850;9.002;2023-12-20T07:01:42;22.85;;;8.82;;
67965;SDS011;54749;47.850;9.002;2023-12-20T07:04:14;17.20;;;6.80;;
67965;SDS011;54749;47.850;9.002;2023-12-20T07:06:42;17.58;;;7.20;;
67965;SDS011;54749;47.850;9.002;2023-12-20T07:09:09;15.35;;;6.20;;
67965;SDS011;54749;47.850;9.002;2023-12-20T07:11:37;17.83;;;6.63;;
67965;SDS011;54749;47.850;9.002;2023-12-20T07:14:04;17.33;;;7.57;;
67965;SDS011;54749;47.850;9.002;2023-12-20T07:16:32;14.32;;;6.30;;
67965;SDS011;54749;47.850;9.002;2023-12-20T07:18:59;21.60;;;8.40;;
67965;SDS011;54749;47.850;9.002;2023-12-20T07:21:26;17.38;;;7.40;;
67965;SDS011;54749;47.850;9.002;2023-12-20T07:23:54;16.13;;;6.80;;
67965;SDS011;54749;47.850;9.002;2023-12-20T07:26:21;15.63;;;6.82;;
67965;SDS011;54749;47.850;9.002;2023-12-20T07:28:48;15.32;;;6.65;;
67965;SDS011;54749;47.850;9.002;2023-12-20T07:31:15;16.77;;;6.60;;
67965;SDS011;54749;47.850;9.002;2023-12-20T07:33:43;18.98;;;8.10;;
67965;SDS011;54749;47.850;9.002;2023-12-20T07:36:11;18.10;;;7.53;;
67965;SDS011;54749;47.850;9.002;2023-12-20T07:38:39;17.60;;;6.53;;
67965;SDS011;54749;47.850;9.002;2023-12-20T07:41:06;17.15;;;7.07;;
67965;SDS011;54749;47.850;9.002;2023-12-20T07:43:37;19.45;;;8.23;;
67965;SDS011;54749;47.850;9.002;2023-12-20T07:46:07;17.77;;;7.57;;
67965;SDS011;54749;47.850;9.002;2023-12-20T07:48:35;16.80;;;7.83;;
67965;SDS011;54749;47.850;9.002;2023-12-20T07:51:03;18.27;;;8.02;;
67965;SDS011;54749;47.850;9.002;2023-12-20T07:53:31;14.10;;;6.25;;
67965;SDS011;54749;47.850;9.002;2023-12-20T07:55:58;16.63;;;6.95;;
67965;SDS011;54749;47.850;9.002;2023-12-20T07:58:25;17.40;;;7.47;;
67965;SDS011;54749;47.850;9.002;2023-12-20T08:01:06;16.30;;;7.40;;
67965;SDS011;54749;47.850;9.002;2023-12-20T08:03:34;15.95;;;6.93;;
67965;SDS011;54749;47.850;9.002;2023-12-20T08:06:01;17.42;;;7.60;;
67965;SDS011;54749;47.850;9.002;2023-12-20T08:08:29;16.80;;;7.10;;
67965;SDS011;54749;47.850;9.002;2023-12-20T08:10:57;15.55;;;6.95;;
67965;SDS011;54749;47.850;9.002;2023-12-20T08:13:27;18.83;;;8.60;;
67965;SDS011;54749;47.850;9.002;2023-12-20T08:15:55;19.23;;;8.65;;
67965;SDS011;54749;47.850;9.002;2023-12-20T08:18:23;23.02;;;9.57;;
67965;SDS011;54749;47.850;9.002;2023-12-20T08:20:50;16.67;;;7.68;;
67965;SDS011;54749;47.850;9.002;2023-12-20T08:23:19;17.83;;;7.70;;
67965;SDS011;54749;47.850;9.002;2023-12-20T08:25:53;19.63;;;7.93;;
67965;SDS011;54749;47.850;9.002;2023-12-20T08:28:20;15.27;;;6.63;;
67965;SDS011;54749;47.850;9.002;2023-12-20T08:30:48;15.50;;;6.60;;
67965;SDS011;54749;47.850;9.002;2023-12-20T08:33:15;13.45;;;6.63;;
67965;SDS011;54749;47.850;9.002;2023-12-20T08:35:42;14.60;;;6.45;;
67965;SDS011;54749;47.850;9.002;2023-12-20T08:38:09;16.37;;;6.93;;
67965;SDS011;54749;47.850;9.002;2023-12-20T08:40:37;19.75;;;8.70;;
67965;SDS011;54749;47.850;9.002;2023-12-20T08:43:04;23.67;;;8.98;;
67965;SDS011;54749;47.850;9.002;2023-12-20T08:45:31;16.35;;;7.43;;
67965;SDS011;54749;47.850;9.002;2023-12-20T08:47:59;14.38;;;6.97;;
67965;SDS011;54749;47.850;9.002;2023-12-20T08:50:29;17.13;;;7.80;;
67965;SDS011;54749;47.850;9.002;2023-12-20T08:52:57;16.02;;;7.50;;
67965;SDS011;54749;47.850;9.002;2023-12-20T08:55:24;14.35;;;6.18;;
67965;SDS011;54749;47.850;9.002;2023-12-20T08:57:52;17.60;;;7.50;;
67965;SDS011;54749;47.850;9.002;2023-12-20T09:00:19;15.13;;;7.40;;
67965;SDS011;54749;47.850;9.002;2023-12-20T09:02:47;16.47;;;7.57;;
67965;SDS011;54749;47.850;9.002;2023-12-20T09:05:14;18.10;;;7.85;;
67965;SDS011;54749;47.850;9.002;2023-12-20T09:07:42;14.98;;;6.50;;
67965;SDS011;54749;47.850;9.002;2023-12-20T09:10:10;14.30;;;6.63;;
67965;SDS011;54749;47.850;9.002;2023-12-20T09:12:38;13.80;;;6.68;;
67965;SDS011;54749;47.850;9.002;2023-12-20T09:15:07;13.37;;;6.00;;
67965;SDS011;54749;47.850;9.002;2023-12-20T09:17:35;15.80;;;6.75;;
67965;SDS011;54749;47.850;9.002;2023-12-20T09:20:02;22.23;;;10.75;;
67965;SDS011;54749;47.850;9.002;2023-12-20T09:22:33;30.58;;;13.93;;
67965;SDS011;54749;47.850;9.002;2023-12-20T09:25:00;18.30;;;8.57;;
67965;SDS011;54749;47.850;9.002;2023-12-20T09:27:28;13.80;;;6.50;;
67965;SDS011;54749;47.850;9.002;2023-12-20T09:29:55;13.73;;;6.43;;
67965;SDS011;54749;47.850;9.002;2023-12-20T09:32:23;13.68;;;6.10;;
67965;SDS011;54749;47.850;9.002;2023-12-20T09:34:50;16.30;;;7.60;;
67965;SDS011;54749;47.850;9.002;2023-12-20T09:37:17;16.58;;;7.72;;
67965;SDS011;54749;47.850;9.002;2023-12-20T09:39:44;13.07;;;5.97;;
67965;SDS011;54749;47.850;9.002;2023-12-20T09:42:12;15.07;;;7.38;;
67965;SDS011;54749;47.850;9.002;2023-12-20T09:44:48;14.48;;;6.68;;
67965;SDS011;54749;47.850;9.002;2023-12-20T09:47:15;14.52;;;7.18;;
67965;SDS011;54749;47.850;9.002;2023-12-20T09:49:45;21.50;;;10.18;;
67965;SDS011;54749;47.850;9.002;2023-12-20T09:52:13;23.53;;;11.90;;
67965;SDS011;54749;47.850;9.002;2023-12-20T09:54:41;19.73;;;9.50;;
67965;SDS011;54749;47.850;9.002;2023-12-20T09:57:10;18.55;;;8.55;;
67965;SDS011;54749;47.850;9.002;2023-12-20T09:59:37;15.48;;;8.15;;
67965;SDS011;54749;47.850;9.002;2023-12-20T10:02:04;15.00;;;6.95;;
67965;SDS011;54749;47.850;9.002;2023-12-20T10:04:39;11.27;;;5.63;;
67965;SDS011;54749;47.850;9.002;2023-12-20T10:07:15;12.93;;;6.60;;
67965;SDS011;54749;47.850;9.002;2023-12-20T10:09:42;11.90;;;6.00;;
67965;SDS011;54749;47.850;9.002;2023-12-20T10:12:11;11.32;;;6.10;;
67965;SDS011;54749;47.850;9.002;2023-12-20T10:14:38;10.88;;;5.70;;
67965;SDS011;54749;47.850;9.002;2023-12-20T10:17:06;10.23;;;4.90;;
67965;SDS011;54749;47.850;9.002;2023-12-20T10:19:33;15.05;;;7.63;;
67965;SDS011;54749;47.850;9.002;2023-12-20T10:22:01;28.88;;;10.45;;
67965;SDS011;54749;47.850;9.002;2023-12-20T10:24:31;13.35;;;6.32;;
67965;SDS011;54749;47.850;9.002;2023-12-20T10:27:02;53.30;;;26.38;;
67965;SDS011;54749;47.850;9.002;2023-12-20T10:29:36;30.03;;;17.50;;
67965;SDS011;54749;47.850;9.002;2023-12-20T10:32:21;36.42;;;15.32;;
67965;SDS011;54749;47.850;9.002;2023-12-20T10:34:51;32.75;;;17.30;;
67965;SDS011;54749;47.850;9.002;2023-12-20T10:37:19;24.05;;;13.40;;
67965;SDS011;54749;47.850;9.002;2023-12-20T10:39:50;27.00;;;12.60;;
67965;SDS011;54749;47.850;9.002;2023-12-20T10:42:27;16.10;;;8.40;;
67965;SDS011;54749;47.850;9.002;2023-12-20T10:44:55;12.05;;;4.90;;
67965;SDS011;54749;47.850;9.002;2023-12-20T10:47:24;13.52;;;5.85;;
67965;SDS011;54749;47.850;9.002;2023-12-20T10:49:52;11.15;;;5.43;;
67965;SDS011;54749;47.850;9.002;2023-12-20T10:52:21;16.67;;;6.63;;
67965;SDS011;54749;47.850;9.002;2023-12-20T10:54:50;9.70;;;4.50;;
67965;SDS011;54749;47.850;9.002;2023-12-20T10:57:18;12.23;;;5.85;;
67965;SDS011;54749;47.850;9.002;2023-12-20T10:59:45;12.60;;;5.65;;
67965;SDS011;54749;47.850;9.002;2023-12-20T11:02:17;9.63;;;4.72;;
67965;SDS011;54749;47.850;9.002;2023-12-20T11:04:47;11.25;;;6.20;;
67965;SDS011;54749;47.850;9.002;2023-12-20T11:07:19;11.50;;;6.50;;
67965;SDS011;54749;47.850;9.002;2023-12-20T11:09:56;10.57;;;6.60;;
67965;SDS011;54749;47.850;9.002;2023-12-20T11:12:35;10.00;;;4.70;;
67965;SDS011;54749;47.850;9.002;2023-12-20T11:15:08;17.42;;;7.03;;
67965;SDS011;54749;47.850;9.002;2023-12-20T11:17:35;18.95;;;6.90;;
67965;SDS011;54749;47.850;9.002;2023-12-20T11:20:06;23.30;;;9.20;;
67965;SDS011;54749;47.850;9.002;2023-12-20T11:22:35;20.38;;;5.68;;
67965;SDS011;54749;47.850;9.002;2023-12-20T11:25:08;32.60;;;9.73;;
67965;SDS011;54749;47.850;9.002;2023-12-20T11:27:41;26.35;;;9.15;;
67965;SDS011;54749;47.850;9.002;2023-12-20T11:30:11;23.50;;;8.82;;
67965;SDS011;54749;47.850;9.002;2023-12-20T11:32:41;28.73;;;10.23;;
67965;SDS011;54749;47.850;9.002;2023-12-20T11:37:38;7.25;;;2.95;;
67965;SDS011;54749;47.850;9.002;2023-12-20T11:40:17;6.85;;;2.10;;
67965;SDS011;54749;47.850;9.002;2023-12-20T11:42:48;3.83;;;1.80;;
67965;SDS011;54749;47.850;9.002;2023-12-20T11:45:17;3.87;;;1.50;;
67965;SDS011;54749;47.850;9.002;2023-12-20T11:47:47;3.63;;;1.50;;
67965;SDS011;54749;47.850;9.002;2023-12-20T11:50:23;3.47;;;1.48;;
67965;SDS011;54749;47.850;9.002;2023-12-20T11:52:51;3.40;;;1.02;;
67965;SDS011;54749;47.850;9.002;2023-12-20T11:55:19;2.90;;;1.00;;
67965;SDS011;54749;47.850;9.002;2023-12-20T11:57:47;3.47;;;0.90;;
67965;SDS011;54749;47.850;9.002;2023-12-20T12:00:14;2.90;;;0.70;;
67965;SDS011;54749;47.850;9.002;2023-12-20T12:02:42;2.97;;;0.70;;
67965;SDS011;54749;47.850;9.002;2023-12-20T12:05:13;2.28;;;0.70;;
67965;SDS011;54749;47.850;9.002;2023-12-20T12:07:40;2.50;;;0.70;;
67965;SDS011;54749;47.850;9.002;2023-12-20T12:10:07;3.00;;;0.80;;
67965;SDS011;54749;47.850;9.002;2023-12-20T12:12:35;2.50;;;0.70;;
67965;SDS011;54749;47.850;9.002;2023-12-20T12:15:02;2.30;;;0.60;;
67965;SDS011;54749;47.850;9.002;2023-12-20T12:17:30;2.60;;;0.70;;
67965;SDS011;54749;47.850;9.002;2023-12-20T12:20:02;2.60;;;0.70;;
67965;SDS011;54749;47.850;9.002;2023-12-20T12:22:31;2.57;;;0.70;;
67965;SDS011;54749;47.850;9.002;2023-12-20T12:25:09;2.85;;;0.70;;
67965;SDS011;54749;47.850;9.002;2023-12-20T12:27:39;3.33;;;0.85;;
67965;SDS011;54749;47.850;9.002;2023-12-20T12:30:09;6.93;;;1.73;;
67965;SDS011;54749;47.850;9.002;2023-12-20T12:32:37;5.75;;;1.50;;
67965;SDS011;54749;47.850;9.002;2023-12-20T12:35:07;6.77;;;1.10;;
67965;SDS011;54749;47.850;9.002;2023-12-20T12:37:39;4.72;;;1.40;;
67965;SDS011;54749;47.850;9.002;2023-12-20T12:40:11;6.40;;;2.10;;
67965;SDS011;54749;47.850;9.002;2023-12-20T12:42:40;4.20;;;1.45;;
67965;SDS011;54749;47.850;9.002;2023-12-20T12:45:09;4.00;;;1.20;;
67965;SDS011;54749;47.850;9.002;2023-12-20T12:47:38;4.53;;;1.23;;
67965;SDS011;54749;47.850;9.002;2023-12-20T12:50:06;3.17;;;1.10;;
67965;SDS011;54749;47.850;9.002;2023-12-20T12:52:34;3.40;;;0.93;;
67965;SDS011;54749;47.850;9.002;2023-12-20T12:55:02;2.72;;;0.70;;
67965;SDS011;54749;47.850;9.002;2023-12-20T12:57:32;2.67;;;0.77;;
67965;SDS011;54749;47.850;9.002;2023-12-20T13:00:00;2.80;;;0.90;;
67965;SDS011;54749;47.850;9.002;2023-12-20T13:02:29;3.88;;;0.90;;
67965;SDS011;54749;47.850;9.002;2023-12-20T13:04:57;3.53;;;1.23;;
67965;SDS011;54749;47.850;9.002;2023-12-20T13:07:25;2.80;;;0.90;;
67965;SDS011;54749;47.850;9.002;2023-12-20T13:09:52;3.50;;;0.98;;
67965;SDS011;54749;47.850;9.002;2023-12-20T13:12:19;4.17;;;1.37;;
67965;SDS011;54749;47.850;9.002;2023-12-20T13:14:46;4.45;;;1.20;;
67965;SDS011;54749;47.850;9.002;2023-12-20T13:17:14;3.33;;;1.10;;
67965;SDS011;54749;47.850;9.002;2023-12-20T13:19:42;3.60;;;1.30;;
67965;SDS011;54749;47.850;9.002;2023-12-20T13:22:09;3.72;;;1.30;;
67965;SDS011;54749;47.850;9.002;2023-12-20T13:24:36;3.57;;;1.30;;
67965;SDS011;54749;47.850;9.002;2023-12-20T13:27:04;4.50;;;1.40;;
67965;SDS011;54749;47.850;9.002;2023-12-20T13:29:32;4.72;;;1.40;;
67965;SDS011;54749;47.850;9.002;2023-12-20T13:31:59;3.95;;;1.30;;
67965;SDS011;54749;47.850;9.002;2023-12-20T13:34:26;4.40;;;1.30;;
67965;SDS011;54749;47.850;9.002;2023-12-20T13:36:54;4.17;;;1.10;;
67965;SDS011;54749;47.850;9.002;2023-12-20T13:39:21;3.72;;;1.38;;
67965;SDS011;54749;47.850;9.002;2023-12-20T13:41:49;4.35;;;1.40;;
67965;SDS011;54749;47.850;9.002;2023-12-20T13:44:16;3.97;;;1.30;;
67965;SDS011;54749;47.850;9.002;2023-12-20T13:46:43;3.60;;;1.30;;
67965;SDS011;54749;47.850;9.002;2023-12-20T13:49:10;3.20;;;1.20;;
67965;SDS011;54749;47.850;9.002;2023-12-20T13:51:39;6.78;;;1.30;;
67965;SDS011;54749;47.850;9.002;2023-12-20T13:54:06;4.95;;;1.30;;
67965;SDS011;54749;47.850;9.002;2023-12-20T13:56:34;4.65;;;1.05;;
67965;SDS011;54749;47.850;9.002;2023-12-20T13:59:13;3.70;;;1.30;;
67965;SDS011;54749;47.850;9.002;2023-12-20T14:01:42;4.07;;;1.30;;
67965;SDS011;54749;47.850;9.002;2023-12-20T14:04:09;4.53;;;1.35;;
67965;SDS011;54749;47.850;9.002;2023-12-20T14:06:36;4.70;;;1.30;;
67965;SDS011;54749;47.850;9.002;2023-12-20T14:09:03;4.25;;;1.20;;
67965;SDS011;54749;47.850;9.002;2023-12-20T14:11:31;6.30;;;1.60;;
67965;SDS011;54749;47.850;9.002;2023-12-20T14:13:58;4.13;;;1.20;;
67965;SDS011;54749;47.850;9.002;2023-12-20T14:16:25;4.97;;;1.45;;
67965;SDS011;54749;47.850;9.002;2023-12-20T14:18:52;4.03;;;1.30;;
67965;SDS011;54749;47.850;9.002;2023-12-20T14:21:20;4.72;;;1.30;;
67965;SDS011;54749;47.850;9.002;2023-12-20T14:23:47;4.65;;;1.00;;
67965;SDS011;54749;47.850;9.002;2023-12-20T14:26:16;6.07;;;1.33;;
67965;SDS011;54749;47.850;9.002;2023-12-20T14:28:43;4.63;;;1.30;;
67965;SDS011;54749;47.850;9.002;2023-12-20T14:31:10;6.97;;;1.40;;
67965;SDS011;54749;47.850;9.002;2023-12-20T14:33:37;4.65;;;1.15;;
67965;SDS011;54749;47.850;9.002;2023-12-20T14:36:06;5.05;;;1.50;;
67965;SDS011;54749;47.850;9.002;2023-12-20T14:38:33;7.00;;;1.60;;
67965;SDS011;54749;47.850;9.002;2023-12-20T14:41:01;5.00;;;1.40;;
67965;SDS011;54749;47.850;9.002;2023-12-20T14:43:30;3.92;;;1.30;;
67965;SDS011;54749;47.850;9.002;2023-12-20T14:45:58;4.45;;;1.20;;